Terminal Aerodrome Forecast
Issued by NWS

Home | Current Version | Previous Version | Text Only | Print | Product List | Glossary On
Versions: 1 2 3 4 5 6 7 8 9 10 11 12 13 14 15 16
322
FTUS44 KEPZ 230520
TAFTCS
TAF
KTCS 230520Z 2306/2406 30062KT P6SM SCT100
     FM231600 16010KT P6SM SCT100
     FM240300 27006KT P6SM SKC=

USA.gov is the U.S. government's official web portal to all federal, state and local government web resources and services.